sensor_id;sensor_type;location;lat;lon;timestamp;pressure;altitude;pressure_sealevel;temperature;humidity
23016;BME280;11674;52.428;13.584;2023-04-19T00:00:29;102453.81;;;8.62;83.47
23016;BME280;11674;52.428;13.584;2023-04-19T00:05:36;102451.41;;;8.65;83.44
23016;BME280;11674;52.428;13.584;2023-04-19T00:10:43;102449.03;;;8.69;83.56
23016;BME280;11674;52.428;13.584;2023-04-19T00:15:50;102445.78;;;8.72;83.40
23016;BME280;11674;52.428;13.584;2023-04-19T00:20:57;102447.97;;;8.70;83.38
23016;BME280;11674;52.428;13.584;2023-04-19T00:26:04;102437.94;;;8.69;83.40
23016;BME280;11674;52.428;13.584;2023-04-19T00:31:12;102443.41;;;8.75;83.37
23016;BME280;11674;52.428;13.584;2023-04-19T00:36:18;102442.31;;;8.76;83.35
23016;BME280;11674;52.428;13.584;2023-04-19T00:41:25;102441.63;;;8.81;83.16
23016;BME280;11674;52.428;13.584;2023-04-19T00:46:32;102432.22;;;8.82;83.10
23016;BME280;11674;52.428;13.584;2023-04-19T00:51:40;102428.75;;;8.75;82.94
23016;BME280;11674;52.428;13.584;2023-04-19T00:56:46;102436.63;;;8.71;82.93
23016;BME280;11674;52.428;13.584;2023-04-19T01:01:53;102446.25;;;8.69;82.73
23016;BME280;11674;52.428;13.584;2023-04-19T01:07:03;102432.91;;;8.66;82.81
23016;BME280;11674;52.428;13.584;2023-04-19T01:12:10;102451.41;;;8.65;82.72
23016;BME280;11674;52.428;13.584;2023-04-19T01:17:18;102436.50;;;8.55;82.35
23016;BME280;11674;52.428;13.584;2023-04-19T01:22:26;102446.91;;;8.41;82.16
23016;BME280;11674;52.428;13.584;2023-04-19T01:27:32;102441.81;;;8.27;81.57
23016;BME280;11674;52.428;13.584;2023-04-19T01:32:39;102442.44;;;8.11;81.34
23016;BME280;11674;52.428;13.584;2023-04-19T01:37:46;102434.78;;;7.95;81.06
23016;BME280;11674;52.428;13.584;2023-04-19T01:42:53;102431.34;;;7.81;81.03
23016;BME280;11674;52.428;13.584;2023-04-19T01:48:01;102422.38;;;7.68;80.91
23016;BME280;11674;52.428;13.584;2023-04-19T01:53:08;102420.13;;;7.58;80.80
23016;BME280;11674;52.428;13.584;2023-04-19T01:58:15;102420.06;;;7.47;80.77
23016;BME280;11674;52.428;13.584;2023-04-19T02:03:22;102417.59;;;7.39;80.74
23016;BME280;11674;52.428;13.584;2023-04-19T02:08:30;102428.94;;;7.31;80.58
23016;BME280;11674;52.428;13.584;2023-04-19T02:13:37;102422.84;;;7.22;80.73
23016;BME280;11674;52.428;13.584;2023-04-19T02:18:44;102411.88;;;7.16;80.68
23016;BME280;11674;52.428;13.584;2023-04-19T02:23:52;102417.69;;;7.08;80.59
23016;BME280;11674;52.428;13.584;2023-04-19T02:28:59;102418.81;;;7.00;80.51
23016;BME280;11674;52.428;13.584;2023-04-19T02:34:07;102404.63;;;6.97;80.57
23016;BME280;11674;52.428;13.584;2023-04-19T02:39:13;102402.56;;;6.92;80.66
23016;BME280;11674;52.428;13.584;2023-04-19T02:44:21;102403.25;;;6.88;80.73
23016;BME280;11674;52.428;13.584;2023-04-19T02:49:29;102399.69;;;6.81;80.68
23016;BME280;11674;52.428;13.584;2023-04-19T02:54:37;102394.00;;;6.76;80.60
23016;BME280;11674;52.428;13.584;2023-04-19T02:59:43;102387.28;;;6.72;80.70
23016;BME280;11674;52.428;13.584;2023-04-19T03:04:51;102386.63;;;6.70;80.83
23016;BME280;11674;52.428;13.584;2023-04-19T03:09:58;102389.84;;;6.67;80.72
23016;BME280;11674;52.428;13.584;2023-04-19T03:15:07;102386.94;;;6.62;80.59
23016;BME280;11674;52.428;13.584;2023-04-19T03:20:14;102384.00;;;6.57;80.69
23016;BME280;11674;52.428;13.584;2023-04-19T03:25:21;102380.22;;;6.51;80.72
23016;BME280;11674;52.428;13.584;2023-04-19T03:30:37;102370.94;;;6.46;80.72
23016;BME280;11674;52.428;13.584;2023-04-19T03:35:44;102361.66;;;6.40;80.66
23016;BME280;11674;52.428;13.584;2023-04-19T03:40:51;102354.50;;;6.33;80.70
23016;BME280;11674;52.428;13.584;2023-04-19T03:46:01;102341.84;;;6.25;80.84
23016;BME280;11674;52.428;13.584;2023-04-19T03:51:08;102352.94;;;6.19;80.80
23016;BME280;11674;52.428;13.584;2023-04-19T03:56:14;102336.44;;;6.12;80.83
23016;BME280;11674;52.428;13.584;2023-04-19T04:01:22;102344.50;;;6.07;80.66
23016;BME280;11674;52.428;13.584;2023-04-19T04:06:30;102341.38;;;6.04;80.84
23016;BME280;11674;52.428;13.584;2023-04-19T04:11:36;102342.19;;;6.04;81.00
23016;BME280;11674;52.428;13.584;2023-04-19T04:16:44;102344.50;;;6.07;81.07
23016;BME280;11674;52.428;13.584;2023-04-19T04:21:50;102331.75;;;6.13;81.10
23016;BME280;11674;52.428;13.584;2023-04-19T04:26:58;102344.00;;;6.17;81.07
23016;BME280;11674;52.428;13.584;2023-04-19T04:32:08;102333.19;;;6.22;81.17
23016;BME280;11674;52.428;13.584;2023-04-19T04:37:16;102333.34;;;6.27;81.20
23016;BME280;11674;52.428;13.584;2023-04-19T04:42:23;102330.16;;;6.30;81.16
23016;BME280;11674;52.428;13.584;2023-04-19T04:47:33;102321.44;;;6.33;81.34
23016;BME280;11674;52.428;13.584;2023-04-19T04:52:39;102312.72;;;6.36;81.28
23016;BME280;11674;52.428;13.584;2023-04-19T04:57:55;102308.22;;;6.41;81.45
23016;BME280;11674;52.428;13.584;2023-04-19T05:03:11;102309.25;;;6.47;81.47
23016;BME280;11674;52.428;13.584;2023-04-19T05:08:26;102293.47;;;6.54;81.54
23016;BME280;11674;52.428;13.584;2023-04-19T05:13:46;102290.66;;;6.60;81.71
23016;BME280;11674;52.428;13.584;2023-04-19T05:18:53;102287.00;;;6.66;81.78
23016;BME280;11674;52.428;13.584;2023-04-19T05:24:02;102283.69;;;6.76;81.87
23016;BME280;11674;52.428;13.584;2023-04-19T05:29:08;102284.03;;;6.86;81.73
23016;BME280;11674;52.428;13.584;2023-04-19T05:34:28;102281.59;;;6.96;81.81
23016;BME280;11674;52.428;13.584;2023-04-19T05:39:36;102284.44;;;7.07;81.69
23016;BME280;11674;52.428;13.584;2023-04-19T05:44:43;102275.59;;;7.17;81.63
23016;BME280;11674;52.428;13.584;2023-04-19T05:49:51;102270.16;;;7.28;81.71
23016;BME280;11674;52.428;13.584;2023-04-19T05:55:08;102277.88;;;7.38;81.45
23016;BME280;11674;52.428;13.584;2023-04-19T06:00:18;102271.56;;;7.49;81.62
23016;BME280;11674;52.428;13.584;2023-04-19T06:05:33;102257.19;;;7.58;81.31
23016;BME280;11674;52.428;13.584;2023-04-19T06:10:40;102255.09;;;7.72;81.41
23016;BME280;11674;52.428;13.584;2023-04-19T06:15:47;102248.88;;;7.76;81.16
23016;BME280;11674;52.428;13.584;2023-04-19T06:20:55;102250.97;;;7.92;81.15
23016;BME280;11674;52.428;13.584;2023-04-19T06:26:01;102252.19;;;8.08;81.19
23016;BME280;11674;52.428;13.584;2023-04-19T06:31:08;102233.50;;;8.21;80.89
23016;BME280;11674;52.428;13.584;2023-04-19T06:36:16;102246.84;;;8.36;80.89
23016;BME280;11674;52.428;13.584;2023-04-19T06:41:23;102244.44;;;8.51;80.88
23016;BME280;11674;52.428;13.584;2023-04-19T06:46:30;102229.91;;;8.67;80.46
23016;BME280;11674;52.428;13.584;2023-04-19T06:51:38;102235.66;;;8.77;80.22
23016;BME280;11674;52.428;13.584;2023-04-19T06:56:46;102228.53;;;8.92;80.16
23016;BME280;11674;52.428;13.584;2023-04-19T07:01:53;102215.72;;;9.14;80.02
23016;BME280;11674;52.428;13.584;2023-04-19T07:07:00;102210.00;;;9.32;79.91
23016;BME280;11674;52.428;13.584;2023-04-19T07:12:07;102193.09;;;9.45;79.66
23016;BME280;11674;52.428;13.584;2023-04-19T07:17:15;102197.44;;;9.69;79.69
23016;BME280;11674;52.428;13.584;2023-04-19T07:22:22;102195.75;;;9.85;78.95
23016;BME280;11674;52.428;13.584;2023-04-19T07:27:28;102200.16;;;9.97;78.67
23016;BME280;11674;52.428;13.584;2023-04-19T07:32:35;102185.81;;;10.17;78.47
23016;BME280;11674;52.428;13.584;2023-04-19T07:37:42;102179.25;;;10.39;78.31
23016;BME280;11674;52.428;13.584;2023-04-19T07:42:49;102168.69;;;10.58;77.01
23016;BME280;11674;52.428;13.584;2023-04-19T07:47:56;102177.84;;;10.58;76.04
23016;BME280;11674;52.428;13.584;2023-04-19T07:53:03;102176.38;;;10.72;76.98
23016;BME280;11674;52.428;13.584;2023-04-19T07:58:10;102156.63;;;10.90;76.93
23016;BME280;11674;52.428;13.584;2023-04-19T08:03:17;102156.75;;;11.00;76.40
23016;BME280;11674;52.428;13.584;2023-04-19T08:08:26;102158.00;;;11.09;74.86
23016;BME280;11674;52.428;13.584;2023-04-19T08:13:33;102156.22;;;11.25;75.92
23016;BME280;11674;52.428;13.584;2023-04-19T08:18:40;102146.75;;;11.47;76.40
23016;BME280;11674;52.428;13.584;2023-04-19T08:23:46;102145.81;;;11.63;75.89
23016;BME280;11674;52.428;13.584;2023-04-19T08:28:54;102137.06;;;11.76;75.53
23016;BME280;11674;52.428;13.584;2023-04-19T08:34:01;102136.97;;;11.98;76.13
23016;BME280;11674;52.428;13.584;2023-04-19T08:39:08;102137.03;;;12.08;75.41
23016;BME280;11674;52.428;13.584;2023-04-19T08:44:15;102125.41;;;12.11;73.74
23016;BME280;11674;52.428;13.584;2023-04-19T08:49:23;102117.00;;;12.06;73.33
23016;BME280;11674;52.428;13.584;2023-04-19T08:54:31;102096.47;;;12.12;73.97
23016;BME280;11674;52.428;13.584;2023-04-19T08:59:38;102099.00;;;12.18;74.16
23016;BME280;11674;52.428;13.584;2023-04-19T09:04:45;102093.25;;;12.35;73.88
23016;BME280;11674;52.428;13.584;2023-04-19T09:10:05;102100.53;;;12.41;71.99
23016;BME280;11674;52.428;13.584;2023-04-19T09:15:13;102080.72;;;12.32;72.18
23016;BME280;11674;52.428;13.584;2023-04-19T09:26:10;102088.75;;;12.80;72.59
23016;BME280;11674;52.428;13.584;2023-04-19T09:31:19;102085.94;;;12.75;71.55
23016;BME280;11674;52.428;13.584;2023-04-19T09:36:30;102078.44;;;12.76;72.17
23016;BME280;11674;52.428;13.584;2023-04-19T09:41:50;102046.50;;;12.98;72.19
23016;BME280;11674;52.428;13.584;2023-04-19T09:46:57;102055.19;;;13.12;73.30
23016;BME280;11674;52.428;13.584;2023-04-19T09:52:04;102048.22;;;13.29;72.25
23016;BME280;11674;52.428;13.584;2023-04-19T09:57:11;102051.84;;;13.20;71.03
23016;BME280;11674;52.428;13.584;2023-04-19T10:02:19;102046.50;;;13.03;71.35
23016;BME280;11674;52.428;13.584;2023-04-19T10:07:27;102037.63;;;13.11;69.77
23016;BME280;11674;52.428;13.584;2023-04-19T10:12:34;102040.94;;;13.03;69.98
23016;BME280;11674;52.428;13.584;2023-04-19T10:17:42;102043.97;;;12.92;69.74
23016;BME280;11674;52.428;13.584;2023-04-19T10:22:49;102038.94;;;12.94;70.53
23016;BME280;11674;52.428;13.584;2023-04-19T10:27:56;102027.88;;;13.09;70.94
23016;BME280;11674;52.428;13.584;2023-04-19T10:33:04;102011.69;;;13.06;69.17
23016;BME280;11674;52.428;13.584;2023-04-19T10:38:14;102014.53;;;13.46;70.42
23016;BME280;11674;52.428;13.584;2023-04-19T10:43:25;102008.63;;;13.77;70.00
23016;BME280;11674;52.428;13.584;2023-04-19T10:48:34;101998.06;;;13.74;69.56
23016;BME280;11674;52.428;13.584;2023-04-19T11:04:07;101995.00;;;13.76;69.40
23016;BME280;11674;52.428;13.584;2023-04-19T11:09:23;101995.78;;;13.81;67.13
23016;BME280;11674;52.428;13.584;2023-04-19T11:14:33;101977.34;;;14.00;68.22
23016;BME280;11674;52.428;13.584;2023-04-19T11:25:25;101960.59;;;14.05;67.71
23016;BME280;11674;52.428;13.584;2023-04-19T11:30:32;101956.69;;;14.01;66.76
23016;BME280;11674;52.428;13.584;2023-04-19T11:35:39;101957.00;;;13.90;66.78
23016;BME280;11674;52.428;13.584;2023-04-19T11:40:46;101953.66;;;13.93;68.61
23016;BME280;11674;52.428;13.584;2023-04-19T11:45:53;101952.28;;;13.85;66.71
23016;BME280;11674;52.428;13.584;2023-04-19T11:51:00;101943.94;;;13.70;67.32
23016;BME280;11674;52.428;13.584;2023-04-19T11:56:08;101963.19;;;13.67;67.48
23016;BME280;11674;52.428;13.584;2023-04-19T12:01:18;101941.94;;;13.81;67.48
23016;BME280;11674;52.428;13.584;2023-04-19T12:06:29;101942.75;;;14.01;68.24
23016;BME280;11674;52.428;13.584;2023-04-19T12:11:44;101937.69;;;14.08;68.11
23016;BME280;11674;52.428;13.584;2023-04-19T12:17:09;101951.34;;;14.15;66.80
23016;BME280;11674;52.428;13.584;2023-04-19T12:22:17;101950.78;;;14.13;66.75
23016;BME280;11674;52.428;13.584;2023-04-19T12:27:25;101937.44;;;14.05;66.52
23016;BME280;11674;52.428;13.584;2023-04-19T12:32:32;101944.97;;;13.99;67.26
23016;BME280;11674;52.428;13.584;2023-04-19T12:37:39;101937.94;;;14.12;67.45
23016;BME280;11674;52.428;13.584;2023-04-19T12:42:46;101925.75;;;13.98;66.09
23016;BME280;11674;52.428;13.584;2023-04-19T12:47:53;101916.50;;;14.07;66.77
23016;BME280;11674;52.428;13.584;2023-04-19T12:53:00;101902.78;;;14.11;68.16
23016;BME280;11674;52.428;13.584;2023-04-19T12:58:07;101887.69;;;14.17;67.58
23016;BME280;11674;52.428;13.584;2023-04-19T13:03:14;101886.56;;;14.23;66.88
23016;BME280;11674;52.428;13.584;2023-04-19T13:08:21;101891.28;;;14.32;66.58
23016;BME280;11674;52.428;13.584;2023-04-19T13:13:28;101876.47;;;14.32;65.76
23016;BME280;11674;52.428;13.584;2023-04-19T13:18:35;101865.81;;;14.39;67.13
23016;BME280;11674;52.428;13.584;2023-04-19T13:23:42;101850.03;;;14.19;66.11
23016;BME280;11674;52.428;13.584;2023-04-19T13:28:50;101866.28;;;14.02;67.04
23016;BME280;11674;52.428;13.584;2023-04-19T13:33:57;101854.03;;;13.93;67.01
23016;BME280;11674;52.428;13.584;2023-04-19T13:39:04;101847.41;;;13.84;67.24
23016;BME280;11674;52.428;13.584;2023-04-19T13:44:11;101829.84;;;13.79;67.97
23016;BME280;11674;52.428;13.584;2023-04-19T13:49:18;101833.53;;;13.64;66.96
23016;BME280;11674;52.428;13.584;2023-04-19T13:54:25;101852.28;;;13.39;64.97
23016;BME280;11674;52.428;13.584;2023-04-19T13:59:32;101851.72;;;12.47;65.56
23016;BME280;11674;52.428;13.584;2023-04-19T14:04:39;101857.50;;;12.10;67.24
23016;BME280;11674;52.428;13.584;2023-04-19T14:09:46;101854.03;;;11.73;68.22
23016;BME280;11674;52.428;13.584;2023-04-19T14:14:53;101851.63;;;11.40;69.15
23016;BME280;11674;52.428;13.584;2023-04-19T14:20:00;101843.44;;;11.24;69.34
23016;BME280;11674;52.428;13.584;2023-04-19T14:25:07;101844.31;;;11.29;70.21
23016;BME280;11674;52.428;13.584;2023-04-19T14:30:14;101837.47;;;11.42;69.96
23016;BME280;11674;52.428;13.584;2023-04-19T14:35:21;101811.38;;;11.53;69.92
23016;BME280;11674;52.428;13.584;2023-04-19T14:40:28;101808.13;;;11.66;69.91
23016;BME280;11674;52.428;13.584;2023-04-19T14:45:35;101804.28;;;11.77;70.41
23016;BME280;11674;52.428;13.584;2023-04-19T14:50:42;101796.53;;;11.89;71.50
23016;BME280;11674;52.428;13.584;2023-04-19T14:55:49;101773.72;;;11.82;70.87
23016;BME280;11674;52.428;13.584;2023-04-19T15:00:57;101789.25;;;11.78;70.04
23016;BME280;11674;52.428;13.584;2023-04-19T15:06:04;101788.91;;;11.59;70.15
23016;BME280;11674;52.428;13.584;2023-04-19T15:11:11;101791.25;;;11.26;70.74
23016;BME280;11674;52.428;13.584;2023-04-19T15:16:18;101801.94;;;11.02;71.00
23016;BME280;11674;52.428;13.584;2023-04-19T15:21:25;101796.72;;;10.74;70.68
23016;BME280;11674;52.428;13.584;2023-04-19T15:26:33;101817.63;;;10.19;70.75
23016;BME280;11674;52.428;13.584;2023-04-19T15:31:41;101841.09;;;9.47;71.54
23016;BME280;11674;52.428;13.584;2023-04-19T15:36:48;101847.34;;;8.99;73.13
23016;BME280;11674;52.428;13.584;2023-04-19T15:41:55;101853.88;;;8.60;73.80
23016;BME280;11674;52.428;13.584;2023-04-19T15:47:02;101850.50;;;8.25;74.70
23016;BME280;11674;52.428;13.584;2023-04-19T15:52:09;101856.25;;;7.96;75.89
23016;BME280;11674;52.428;13.584;2023-04-19T15:57:16;101853.44;;;7.79;77.05
23016;BME280;11674;52.428;13.584;2023-04-19T16:02:23;101840.75;;;7.67;77.72
23016;BME280;11674;52.428;13.584;2023-04-19T16:07:30;101839.59;;;7.51;79.54
23016;BME280;11674;52.428;13.584;2023-04-19T16:12:44;101831.69;;;7.43;80.74
23016;BME280;11674;52.428;13.584;2023-04-19T16:17:51;101825.69;;;7.35;81.31
23016;BME280;11674;52.428;13.584;2023-04-19T16:22:58;101826.66;;;7.29;81.79
23016;BME280;11674;52.428;13.584;2023-04-19T16:28:05;101825.25;;;7.26;82.17
23016;BME280;11674;52.428;13.584;2023-04-19T16:33:12;101820.34;;;7.28;82.46
23016;BME280;11674;52.428;13.584;2023-04-19T16:38:19;101815.75;;;7.34;82.79
23016;BME280;11674;52.428;13.584;2023-04-19T16:43:26;101812.75;;;7.35;82.95
23016;BME280;11674;52.428;13.584;2023-04-19T16:48:33;101805.56;;;7.34;82.99
23016;BME280;11674;52.428;13.584;2023-04-19T16:53:40;101798.44;;;7.38;83.26
23016;BME280;11674;52.428;13.584;2023-04-19T16:58:47;101800.50;;;7.43;83.41
23016;BME280;11674;52.428;13.584;2023-04-19T17:03:54;101798.44;;;7.50;83.54
23016;BME280;11674;52.428;13.584;2023-04-19T17:09:01;101799.28;;;7.50;83.48
23016;BME280;11674;52.428;13.584;2023-04-19T17:14:08;101794.00;;;7.49;83.57
23016;BME280;11674;52.428;13.584;2023-04-19T17:19:15;101794.84;;;7.49;83.85
23016;BME280;11674;52.428;13.584;2023-04-19T17:24:22;101799.28;;;7.50;83.92
23016;BME280;11674;52.428;13.584;2023-04-19T17:29:29;101787.03;;;7.46;84.02
23016;BME280;11674;52.428;13.584;2023-04-19T17:34:36;101794.47;;;7.46;84.26
23016;BME280;11674;52.428;13.584;2023-04-19T17:39:43;101795.31;;;7.46;84.37
23016;BME280;11674;52.428;13.584;2023-04-19T17:44:50;101798.94;;;7.47;84.35
23016;BME280;11674;52.428;13.584;2023-04-19T17:50:08;101795.66;;;7.50;84.73
23016;BME280;11674;52.428;13.584;2023-04-19T17:55:16;101798.53;;;7.55;84.70
23016;BME280;11674;52.428;13.584;2023-04-19T18:00:23;101802.47;;;7.59;84.62
23016;BME280;11674;52.428;13.584;2023-04-19T18:05:30;101797.88;;;7.64;84.75
23016;BME280;11674;52.428;13.584;2023-04-19T18:10:37;101801.09;;;7.73;84.78
23016;BME280;11674;52.428;13.584;2023-04-19T18:15:44;101804.81;;;7.78;84.79
23016;BME280;11674;52.428;13.584;2023-04-19T18:20:51;101809.84;;;7.81;84.73
23016;BME280;11674;52.428;13.584;2023-04-19T18:26:00;101801.63;;;7.86;84.78
23016;BME280;11674;52.428;13.584;2023-04-19T18:31:08;101796.88;;;7.82;84.57
23016;BME280;11674;52.428;13.584;2023-04-19T18:36:15;101806.00;;;7.82;84.86
23016;BME280;11674;52.428;13.584;2023-04-19T18:41:22;101800.56;;;7.87;84.90
23016;BME280;11674;52.428;13.584;2023-04-19T18:46:29;101799.25;;;7.90;84.96
23016;BME280;11674;52.428;13.584;2023-04-19T18:51:43;101810.88;;;7.92;84.97
23016;BME280;11674;52.428;13.584;2023-04-19T18:56:51;101818.69;;;7.95;85.06
23016;BME280;11674;52.428;13.584;2023-04-19T19:01:58;101808.31;;;8.02;85.09
23016;BME280;11674;52.428;13.584;2023-04-19T19:07:05;101808.41;;;8.07;85.17
23016;BME280;11674;52.428;13.584;2023-04-19T19:12:12;101819.03;;;8.15;85.24
23016;BME280;11674;52.428;13.584;2023-04-19T19:17:19;101813.03;;;8.18;85.16
23016;BME280;11674;52.428;13.584;2023-04-19T19:22:26;101824.19;;;8.23;85.03
23016;BME280;11674;52.428;13.584;2023-04-19T19:27:33;101814.34;;;8.27;85.00
23016;BME280;11674;52.428;13.584;2023-04-19T19:32:40;101826.44;;;8.26;85.04
23016;BME280;11674;52.428;13.584;2023-04-19T19:37:47;101824.88;;;8.30;85.32
23016;BME280;11674;52.428;13.584;2023-04-19T19:42:54;101820.53;;;8.34;85.23
23016;BME280;11674;52.428;13.584;2023-04-19T19:48:01;101823.88;;;8.36;85.14
23016;BME280;11674;52.428;13.584;2023-04-19T19:53:08;101832.50;;;8.39;85.23
23016;BME280;11674;52.428;13.584;2023-04-19T19:58:15;101834.53;;;8.44;85.12
23016;BME280;11674;52.428;13.584;2023-04-19T20:03:22;101836.28;;;8.50;85.31
23016;BME280;11674;52.428;13.584;2023-04-19T20:08:29;101842.41;;;8.52;85.04
23016;BME280;11674;52.428;13.584;2023-04-19T20:13:36;101844.84;;;8.48;85.12
23016;BME280;11674;52.428;13.584;2023-04-19T20:18:43;101851.44;;;8.47;85.03
23016;BME280;11674;52.428;13.584;2023-04-19T20:23:50;101839.06;;;8.50;85.04
23016;BME280;11674;52.428;13.584;2023-04-19T20:28:57;101833.28;;;8.51;85.12
23016;BME280;11674;52.428;13.584;2023-04-19T20:34:04;101830.25;;;8.53;85.20
23016;BME280;11674;52.428;13.584;2023-04-19T20:39:27;101824.81;;;8.58;85.34
23016;BME280;11674;52.428;13.584;2023-04-19T20:44:34;101826.75;;;8.57;85.12
23016;BME280;11674;52.428;13.584;2023-04-19T20:49:41;101832.53;;;8.56;85.08
23016;BME280;11674;52.428;13.584;2023-04-19T20:54:48;101831.94;;;8.54;85.07
23016;BME280;11674;52.428;13.584;2023-04-19T20:59:55;101831.19;;;8.58;85.10
23016;BME280;11674;52.428;13.584;2023-04-19T21:05:02;101831.50;;;8.62;85.24
23016;BME280;11674;52.428;13.584;2023-04-19T21:10:09;101824.31;;;8.61;85.05
23016;BME280;11674;52.428;13.584;2023-04-19T21:15:16;101829.84;;;8.61;85.21
23016;BME280;11674;52.428;13.584;2023-04-19T21:20:23;101838.06;;;8.56;85.02
23016;BME280;11674;52.428;13.584;2023-04-19T21:25:30;101836.13;;;8.56;85.00
23016;BME280;11674;52.428;13.584;2023-04-19T21:30:37;101839.16;;;8.55;85.09
23016;BME280;11674;52.428;13.584;2023-04-19T21:35:44;101851.31;;;8.54;85.10
23016;BME280;11674;52.428;13.584;2023-04-19T21:40:54;101842.41;;;8.52;85.14
23016;BME280;11674;52.428;13.584;2023-04-19T21:46:01;101847.94;;;8.52;85.28
23016;BME280;11674;52.428;13.584;2023-04-19T21:51:08;101855.13;;;8.53;85.25
23016;BME280;11674;52.428;13.584;2023-04-19T21:56:15;101848.88;;;8.57;85.18
23016;BME280;11674;52.428;13.584;2023-04-19T22:01:22;101859.06;;;8.57;85.11
23016;BME280;11674;52.428;13.584;2023-04-19T22:06:30;101861.75;;;8.52;85.22
23016;BME280;11674;52.428;13.584;2023-04-19T22:11:37;101855.13;;;8.53;85.17
23016;BME280;11674;52.428;13.584;2023-04-19T22:16:44;101855.66;;;8.50;85.07
23016;BME280;11674;52.428;13.584;2023-04-19T22:21:52;101851.78;;;8.51;85.08
23016;BME280;11674;52.428;13.584;2023-04-19T22:26:59;101849.03;;;8.51;85.21
23016;BME280;11674;52.428;13.584;2023-04-19T22:32:06;101832.28;;;8.57;85.25
23016;BME280;11674;52.428;13.584;2023-04-19T22:37:13;101840.31;;;8.59;85.23
23016;BME280;11674;52.428;13.584;2023-04-19T22:42:20;101837.81;;;8.57;85.26
23016;BME280;11674;52.428;13.584;2023-04-19T22:47:27;101838.72;;;8.63;85.35
23016;BME280;11674;52.428;13.584;2023-04-19T22:52:34;101829.34;;;8.64;85.11
23016;BME280;11674;52.428;13.584;2023-04-19T22:57:41;101831.03;;;8.65;85.17
23016;BME280;11674;52.428;13.584;2023-04-19T23:02:48;101847.72;;;8.70;85.22
23016;BME280;11674;52.428;13.584;2023-04-19T23:07:56;101845.44;;;8.67;85.31
23016;BME280;11674;52.428;13.584;2023-04-19T23:13:04;101834.28;;;8.62;84.91
23016;BME280;11674;52.428;13.584;2023-04-19T23:18:11;101840.91;;;8.61;85.19
23016;BME280;11674;52.428;13.584;2023-04-19T23:23:18;101833.69;;;8.60;84.98
23016;BME280;11674;52.428;13.584;2023-04-19T23:28:25;101830.09;;;8.59;85.14
23016;BME280;11674;52.428;13.584;2023-04-19T23:33:32;101830.34;;;8.58;85.18
23016;BME280;11674;52.428;13.584;2023-04-19T23:38:39;101816.78;;;8.56;85.18
23016;BME280;11674;52.428;13.584;2023-04-19T23:43:46;101817.59;;;8.57;85.35
23016;BME280;11674;52.428;13.584;2023-04-19T23:48:53;101812.06;;;8.57;85.22
23016;BME280;11674;52.428;13.584;2023-04-19T23:54:00;101804.88;;;8.56;85.10
23016;BME280;11674;52.428;13.584;2023-04-19T23:59:07;101806.28;;;8.58;85.18
